createdAt,value
2023-04-21T00:02:07.229Z,5.15
2023-04-21T00:04:35.982Z,5.12
2023-04-21T00:07:04.711Z,5.08
2023-04-21T00:09:32.865Z,5.01
2023-04-21T00:12:02.529Z,5.00
2023-04-21T00:14:30.567Z,5.02
2023-04-21T00:17:00.295Z,5.06
2023-04-21T00:19:29.038Z,5.08
2023-04-21T00:21:59.113Z,5.17
2023-04-21T00:24:27.928Z,5.22
2023-04-21T00:26:56.293Z,5.27
2023-04-21T00:29:25.962Z,5.30
2023-04-21T00:31:54.354Z,5.32
2023-04-21T00:34:22.529Z,5.35
2023-04-21T00:36:50.669Z,5.34
2023-04-21T00:39:19.620Z,5.33
2023-04-21T00:41:48.872Z,5.39
2023-04-21T00:44:18.267Z,5.39
2023-04-21T00:46:49.193Z,5.39
2023-04-21T00:49:17.605Z,5.35
2023-04-21T00:51:46.204Z,5.35
2023-04-21T00:54:15.265Z,5.32
2023-04-21T00:56:43.327Z,5.32
2023-04-21T00:59:11.961Z,5.29
2023-04-21T01:01:42.493Z,5.21
2023-04-21T01:04:12.319Z,5.12
2023-04-21T01:06:40.773Z,5.13
2023-04-21T01:09:09.244Z,5.17
2023-04-21T01:11:38.747Z,5.18
2023-04-21T01:14:08.781Z,5.22
2023-04-21T01:16:38.867Z,5.25
2023-04-21T01:19:07.852Z,5.28
2023-04-21T01:21:41.859Z,5.27
2023-04-21T01:24:10.185Z,5.20
2023-04-21T01:26:38.217Z,5.16
2023-04-21T01:29:06.304Z,5.12
2023-04-21T01:31:34.563Z,5.07
2023-04-21T01:34:04.635Z,5.00
2023-04-21T01:36:33.114Z,5.01
2023-04-21T01:39:03.088Z,4.96
2023-04-21T01:41:31.204Z,4.98
2023-04-21T01:43:59.441Z,5.01
2023-04-21T01:46:28.136Z,5.06
2023-04-21T01:48:57.401Z,5.05
2023-04-21T01:51:27.020Z,5.07
2023-04-21T01:53:55.995Z,5.07
2023-04-21T01:56:26.594Z,5.07
2023-04-21T01:58:54.660Z,5.12
2023-04-21T02:01:22.987Z,5.10
2023-04-21T02:03:51.524Z,5.11
2023-04-21T02:06:19.690Z,5.13
2023-04-21T02:08:47.724Z,5.18
2023-04-21T02:11:15.838Z,5.20
2023-04-21T02:13:45.460Z,5.28
2023-04-21T02:16:14.657Z,5.34
2023-04-21T02:18:44.714Z,5.45
2023-04-21T02:21:13.120Z,5.45
2023-04-21T02:23:41.960Z,5.48
2023-04-21T02:26:10.518Z,5.52
2023-04-21T02:28:38.581Z,5.52
2023-04-21T02:31:08.669Z,5.53
2023-04-21T02:33:36.941Z,5.58
2023-04-21T02:36:05.448Z,5.58
2023-04-21T02:38:33.572Z,5.54
2023-04-21T02:41:01.952Z,5.56
2023-04-21T02:43:30.198Z,5.53
2023-04-21T02:45:58.904Z,5.54
2023-04-21T02:48:28.973Z,5.50
2023-04-21T02:50:56.992Z,5.43
2023-04-21T02:53:25.133Z,5.41
2023-04-21T02:55:54.065Z,5.37
2023-04-21T02:58:30.945Z,5.35
2023-04-21T03:01:09.445Z,5.29
2023-04-21T03:03:40.879Z,5.31
2023-04-21T03:06:09.160Z,5.35
2023-04-21T03:08:37.371Z,5.35
2023-04-21T03:11:07.315Z,5.36
2023-04-21T03:13:35.638Z,5.36
2023-04-21T03:16:04.173Z,5.34
2023-04-21T03:18:35.488Z,5.29
2023-04-21T03:21:05.196Z,5.22
2023-04-21T03:23:33.577Z,5.19
2023-04-21T03:26:02.030Z,5.18
2023-04-21T03:28:30.662Z,5.13
2023-04-21T03:30:58.744Z,5.16
2023-04-21T03:33:27.997Z,5.19
2023-04-21T03:35:56.276Z,5.19
2023-04-21T03:38:25.850Z,5.23
2023-04-21T03:40:53.954Z,5.21
2023-04-21T03:43:22.419Z,5.20
2023-04-21T03:45:50.850Z,5.21
2023-04-21T03:48:20.554Z,5.20
2023-04-21T03:50:48.815Z,5.18
2023-04-21T03:53:16.979Z,5.18
2023-04-21T03:55:48.887Z,5.16
2023-04-21T03:58:17.408Z,5.16
2023-04-21T04:00:45.543Z,5.17
2023-04-21T04:03:13.926Z,5.11
2023-04-21T04:05:42.232Z,5.06
2023-04-21T04:08:10.631Z,4.98
2023-04-21T04:10:39.157Z,4.95
2023-04-21T04:13:08.708Z,4.89
2023-04-21T04:15:36.910Z,4.80
2023-04-21T04:18:05.221Z,4.81
2023-04-21T04:20:33.353Z,4.77
2023-04-21T04:23:01.579Z,4.70
2023-04-21T04:25:29.831Z,4.64
2023-04-21T04:27:57.945Z,4.56
2023-04-21T04:30:28.565Z,4.47
2023-04-21T04:32:58.055Z,4.43
2023-04-21T04:35:26.277Z,4.31
2023-04-21T04:37:54.895Z,4.26
2023-04-21T04:40:23.022Z,4.20
2023-04-21T04:42:51.651Z,4.13
2023-04-21T04:45:22.310Z,4.10
2023-04-21T04:47:52.775Z,4.06
2023-04-21T04:50:20.963Z,4.01
2023-04-21T04:52:49.889Z,3.97
2023-04-21T04:55:18.981Z,3.92
2023-04-21T04:57:47.081Z,3.86
2023-04-21T05:00:16.049Z,3.82
2023-04-21T05:02:44.681Z,3.77
2023-04-21T05:05:14.558Z,3.71
2023-04-21T05:07:42.758Z,3.67
2023-04-21T05:10:10.899Z,3.62
2023-04-21T05:12:39.217Z,3.57
2023-04-21T05:15:08.009Z,3.54
2023-04-21T05:17:36.246Z,3.48
2023-04-21T05:20:05.561Z,3.45
2023-04-21T05:22:37.890Z,3.36
2023-04-21T05:25:06.490Z,3.22
2023-04-21T05:27:35.157Z,3.06
2023-04-21T05:30:03.314Z,2.90
2023-04-21T05:32:31.811Z,2.90
2023-04-21T05:35:00.536Z,2.82
2023-04-21T05:37:28.720Z,2.78
2023-04-21T05:39:58.633Z,2.74
2023-04-21T05:42:26.784Z,2.65
2023-04-21T05:44:55.415Z,2.57
2023-04-21T05:47:23.518Z,2.53
2023-04-21T05:49:53.919Z,2.61
2023-04-21T05:52:22.157Z,2.66
2023-04-21T05:54:50.589Z,2.74
2023-04-21T05:57:21.295Z,2.87
2023-04-21T05:59:49.357Z,3.07
2023-04-21T06:02:17.520Z,3.42
2023-04-21T06:04:45.901Z,3.85
2023-04-21T06:07:15.575Z,4.36
2023-04-21T06:09:45.328Z,4.91
2023-04-21T06:12:13.383Z,5.42
2023-04-21T06:14:43.351Z,5.93
2023-04-21T06:17:11.683Z,6.33
2023-04-21T06:19:41.823Z,6.65
2023-04-21T06:22:10.297Z,6.98
2023-04-21T06:24:38.579Z,7.11
2023-04-21T06:27:11.208Z,7.39
2023-04-21T06:29:39.585Z,7.48
2023-04-21T06:32:09.263Z,7.59
2023-04-21T06:34:37.328Z,7.44
2023-04-21T06:37:05.584Z,7.13
2023-04-21T06:39:33.962Z,6.81
2023-04-21T06:42:02.522Z,6.49
2023-04-21T06:44:32.451Z,6.13
2023-04-21T06:47:00.867Z,6.14
2023-04-21T06:49:30.806Z,6.04
2023-04-21T06:51:58.999Z,5.92
2023-04-21T06:54:27.110Z,5.81
2023-04-21T06:56:55.214Z,5.69
2023-04-21T06:59:24.333Z,5.55
2023-04-21T07:01:52.617Z,5.52
2023-04-21T07:04:21.146Z,5.52
2023-04-21T07:06:50.698Z,5.49
2023-04-21T07:09:19.121Z,5.56
2023-04-21T07:11:47.368Z,5.60
2023-04-21T07:14:15.401Z,5.69
2023-04-21T07:16:43.754Z,5.87
2023-04-21T07:19:11.901Z,5.97
2023-04-21T07:21:40.042Z,6.13
2023-04-21T07:24:10.691Z,6.39
2023-04-21T07:26:38.945Z,6.55
2023-04-21T07:29:07.236Z,6.64
2023-04-21T07:31:35.444Z,6.79
2023-04-21T07:34:03.952Z,6.90
2023-04-21T07:36:32.312Z,6.97
2023-04-21T07:39:00.766Z,7.05
2023-04-21T07:41:31.140Z,7.16
2023-04-21T07:43:59.652Z,7.35
2023-04-21T07:46:30.503Z,7.91
2023-04-21T07:48:59.017Z,8.70
2023-04-21T07:51:28.669Z,9.49
2023-04-21T07:53:57.364Z,10.18
2023-04-21T07:56:25.909Z,10.76
2023-04-21T07:58:55.471Z,11.33
2023-04-21T08:01:24.824Z,11.75
2023-04-21T08:03:52.961Z,12.09
2023-04-21T08:06:21.555Z,12.36
2023-04-21T08:08:50.296Z,12.55
2023-04-21T08:11:18.496Z,12.78
2023-04-21T08:13:46.878Z,12.96
2023-04-21T08:16:16.651Z,12.95
2023-04-21T08:18:45.061Z,13.20
2023-04-21T08:21:14.107Z,13.43
2023-04-21T08:23:42.240Z,13.62
2023-04-21T08:26:10.949Z,13.51
2023-04-21T08:28:39.332Z,13.81
2023-04-21T08:31:07.651Z,13.69
2023-04-21T08:33:43.916Z,13.51
2023-04-21T08:36:28.399Z,13.30
2023-04-21T08:38:58.112Z,13.01
2023-04-21T08:41:27.289Z,12.62
2023-04-21T08:43:55.488Z,12.74
2023-04-21T08:46:24.215Z,13.02
2023-04-21T08:48:55.256Z,13.24
2023-04-21T08:51:24.749Z,13.29
2023-04-21T08:53:53.243Z,13.11
2023-04-21T08:56:21.279Z,12.93
2023-04-21T08:58:49.460Z,13.20
2023-04-21T09:01:18.101Z,13.25
2023-04-21T09:03:46.667Z,13.17
2023-04-21T09:06:16.840Z,12.87
2023-04-21T09:08:46.019Z,13.20
2023-04-21T09:11:15.277Z,13.65
2023-04-21T09:13:44.404Z,13.79
2023-04-21T09:16:20.378Z,14.06
2023-04-21T09:18:48.741Z,13.98
2023-04-21T09:21:19.303Z,14.11
2023-04-21T09:23:49.077Z,14.00
2023-04-21T09:26:17.887Z,14.14
2023-04-21T09:28:47.374Z,14.02
2023-04-21T09:31:20.019Z,13.95
2023-04-21T09:33:57.670Z,13.98
2023-04-21T09:36:29.904Z,13.67
2023-04-21T09:41:30.159Z,13.75
2023-04-21T09:44:01.563Z,13.91
2023-04-21T09:46:31.650Z,13.83
2023-04-21T09:49:01.530Z,13.58
2023-04-21T09:51:42.852Z,13.35
2023-04-21T09:54:29.616Z,12.81
2023-04-21T09:57:01.874Z,12.37
2023-04-21T09:59:31.862Z,12.32
2023-04-21T10:02:01.228Z,12.49
2023-04-21T10:04:31.318Z,12.62
2023-04-21T10:07:01.854Z,12.69
2023-04-21T10:09:34.857Z,12.86
2023-04-21T10:12:04.017Z,13.19
2023-04-21T10:14:32.174Z,13.14
2023-04-21T10:17:05.501Z,12.86
2023-04-21T10:19:40.121Z,12.57
2023-04-21T10:22:10.717Z,12.27
2023-04-21T10:24:40.207Z,12.13
2023-04-21T10:27:11.080Z,12.00
2023-04-21T10:29:55.399Z,11.71
2023-04-21T10:32:41.521Z,11.70
2023-04-21T10:35:13.169Z,11.62
2023-04-21T10:37:44.818Z,11.49
2023-04-21T10:40:43.735Z,11.53
2023-04-21T10:43:27.885Z,11.53
2023-04-21T10:45:57.237Z,11.64
2023-04-21T10:48:27.567Z,11.72
2023-04-21T10:50:55.706Z,11.56
2023-04-21T10:53:26.646Z,11.57
2023-04-21T10:55:54.874Z,11.64
2023-04-21T10:58:24.490Z,11.76
2023-04-21T11:00:55.322Z,11.97
2023-04-21T11:03:23.660Z,12.23
2023-04-21T11:05:52.167Z,12.87
2023-04-21T11:08:20.253Z,13.05
2023-04-21T11:10:51.931Z,13.07
2023-04-21T11:13:22.186Z,13.21
2023-04-21T11:16:01.193Z,13.35
2023-04-21T11:18:37.911Z,13.74
2023-04-21T11:21:10.573Z,13.59
2023-04-21T11:23:41.855Z,13.51
2023-04-21T11:26:11.554Z,13.30
2023-04-21T11:28:41.574Z,13.25
2023-04-21T11:31:10.080Z,13.17
2023-04-21T11:33:38.954Z,13.46
2023-04-21T11:36:07.857Z,13.60
2023-04-21T11:38:40.102Z,13.57
2023-04-21T11:41:09.569Z,13.54
2023-04-21T11:43:39.760Z,13.32
2023-04-21T11:46:15.157Z,13.30
2023-04-21T11:48:44.392Z,13.92
2023-04-21T11:51:21.510Z,14.10
2023-04-21T11:53:50.447Z,14.52
2023-04-21T11:56:19.087Z,14.35
2023-04-21T11:58:48.734Z,14.33
2023-04-21T12:01:17.380Z,14.30
2023-04-21T12:03:52.199Z,14.48
2023-04-21T12:06:24.690Z,14.63
2023-04-21T12:08:57.348Z,14.79
2023-04-21T12:11:26.146Z,14.81
2023-04-21T12:13:57.504Z,14.96
2023-04-21T12:16:27.254Z,14.91
2023-04-21T12:18:55.933Z,14.83
2023-04-21T12:21:28.000Z,14.60
2023-04-21T12:23:56.429Z,14.51
2023-04-21T12:26:25.339Z,14.31
2023-04-21T12:28:53.690Z,14.05
2023-04-21T12:31:23.245Z,13.88
2023-04-21T12:33:51.412Z,13.72
2023-04-21T12:36:19.837Z,13.83
2023-04-21T12:38:48.175Z,13.78
2023-04-21T12:41:16.220Z,13.43
2023-04-21T12:43:44.670Z,13.35
2023-04-21T12:46:12.832Z,13.20
2023-04-21T12:48:42.667Z,13.53
2023-04-21T12:51:11.149Z,13.84
2023-04-21T12:53:39.474Z,13.99
2023-04-21T12:56:07.855Z,13.94
2023-04-21T12:58:36.829Z,14.05
2023-04-21T13:01:04.913Z,14.17
2023-04-21T13:03:33.497Z,14.38
2023-04-21T13:06:03.287Z,14.38
2023-04-21T13:08:31.330Z,14.42
2023-04-21T13:10:59.527Z,14.24
2023-04-21T13:13:27.878Z,14.16
2023-04-21T13:15:56.202Z,14.31
2023-04-21T13:18:24.359Z,14.55
2023-04-21T13:20:52.751Z,14.65
2023-04-21T13:23:22.413Z,14.73
2023-04-21T13:25:51.084Z,14.68
2023-04-21T13:28:20.000Z,14.73
2023-04-21T13:30:48.255Z,14.64
2023-04-21T13:33:16.747Z,14.79
2023-04-21T13:35:45.181Z,14.91
2023-04-21T13:38:13.235Z,14.83
2023-04-21T13:40:42.696Z,14.81
2023-04-21T13:43:11.192Z,14.93
2023-04-21T13:45:39.527Z,14.83
2023-04-21T13:48:07.810Z,14.92
2023-04-21T13:50:36.001Z,14.78
2023-04-21T13:53:04.355Z,14.81
2023-04-21T13:55:32.430Z,14.84
2023-04-21T13:58:03.279Z,14.88
2023-04-21T14:00:31.444Z,14.97
2023-04-21T14:02:59.706Z,14.81
2023-04-21T14:05:28.739Z,14.83
2023-04-21T14:07:57.096Z,14.87
2023-04-21T14:10:25.269Z,15.01
2023-04-21T14:12:53.652Z,15.19
2023-04-21T14:15:23.188Z,15.21
2023-04-21T14:17:51.228Z,15.31
2023-04-21T14:20:19.461Z,14.89
2023-04-21T14:22:47.742Z,14.72
2023-04-21T14:25:15.965Z,14.49
2023-04-21T14:27:44.245Z,14.39
2023-04-21T14:30:13.151Z,14.45
2023-04-21T14:32:45.495Z,14.60
2023-04-21T14:35:14.286Z,14.75
2023-04-21T14:37:42.677Z,14.57
2023-04-21T14:40:11.640Z,14.52
2023-04-21T14:42:41.565Z,14.34
2023-04-21T14:45:10.500Z,14.23
2023-04-21T14:47:38.726Z,14.07
2023-04-21T14:50:09.782Z,13.90
2023-04-21T14:52:37.845Z,13.62
2023-04-21T14:55:06.520Z,13.54
2023-04-21T14:57:34.642Z,13.26
2023-04-21T15:00:03.295Z,13.22
2023-04-21T15:02:31.819Z,13.14
2023-04-21T15:05:00.321Z,13.08
2023-04-21T15:07:29.866Z,13.04
2023-04-21T15:09:58.166Z,13.08
2023-04-21T15:12:26.419Z,12.98
2023-04-21T15:14:54.661Z,12.98
2023-04-21T15:17:22.932Z,12.90
2023-04-21T15:19:51.241Z,12.81
2023-04-21T15:22:19.996Z,12.75
2023-04-21T15:24:50.039Z,12.73
2023-04-21T15:27:18.782Z,12.72
2023-04-21T15:29:47.104Z,12.61
2023-04-21T15:32:15.439Z,12.58
2023-04-21T15:34:43.487Z,12.60
2023-04-21T15:37:11.584Z,12.59
2023-04-21T15:39:40.241Z,12.53
2023-04-21T15:42:09.720Z,12.61
2023-04-21T15:44:39.243Z,12.61
2023-04-21T15:47:07.644Z,12.66
2023-04-21T15:49:36.115Z,12.63
2023-04-21T15:52:06.776Z,12.64
2023-04-21T15:54:35.258Z,12.59
2023-04-21T15:57:03.793Z,12.62
2023-04-21T15:59:33.370Z,12.66
2023-04-21T16:02:01.604Z,12.61
2023-04-21T16:04:30.194Z,12.45
2023-04-21T16:06:58.838Z,12.45
2023-04-21T16:09:27.117Z,12.40
2023-04-21T16:11:55.255Z,12.35
2023-04-21T16:14:23.227Z,12.44
2023-04-21T16:16:52.910Z,12.55
2023-04-21T16:19:21.096Z,12.56
2023-04-21T16:21:49.290Z,12.55
2023-04-21T16:24:17.562Z,12.76
2023-04-21T16:26:46.022Z,12.84
2023-04-21T16:29:14.459Z,12.87
2023-04-21T16:31:42.508Z,12.96
2023-04-21T16:34:13.936Z,12.79
2023-04-21T16:36:42.338Z,12.82
2023-04-21T16:39:10.602Z,12.78
2023-04-21T16:41:38.841Z,12.75
2023-04-21T16:44:07.317Z,12.79
2023-04-21T16:46:35.583Z,12.89
2023-04-21T16:49:03.810Z,12.87
2023-04-21T16:51:33.447Z,12.75
2023-04-21T16:54:01.506Z,12.82
2023-04-21T16:56:29.591Z,12.87
2023-04-21T16:58:57.923Z,12.92
2023-04-21T17:01:26.040Z,12.86
2023-04-21T17:03:54.365Z,12.77
2023-04-21T17:06:22.607Z,12.82
2023-04-21T17:08:53.143Z,12.72
2023-04-21T17:11:21.226Z,12.69
2023-04-21T17:13:49.289Z,12.71
2023-04-21T17:16:17.424Z,12.68
2023-04-21T17:18:45.507Z,12.65
2023-04-21T17:21:13.847Z,12.67
2023-04-21T17:23:42.085Z,12.61
2023-04-21T17:26:13.162Z,12.58
2023-04-21T17:28:41.537Z,12.54
2023-04-21T17:31:15.678Z,12.64
2023-04-21T17:33:44.477Z,12.72
2023-04-21T17:36:12.824Z,12.71
2023-04-21T17:38:43.028Z,12.72
2023-04-21T17:41:12.970Z,12.67
2023-04-21T17:43:41.287Z,12.70
2023-04-21T17:46:09.535Z,12.68
2023-04-21T17:48:38.429Z,12.72
2023-04-21T17:51:06.812Z,12.76
2023-04-21T17:53:34.841Z,12.82
2023-04-21T17:56:03.356Z,12.75
2023-04-21T17:58:34.567Z,12.66
2023-04-21T18:01:02.725Z,12.65
2023-04-21T18:03:31.324Z,12.62
2023-04-21T18:05:59.578Z,12.65
2023-04-21T18:08:27.621Z,12.56
2023-04-21T18:10:55.784Z,12.52
2023-04-21T18:13:24.077Z,12.48
2023-04-21T18:15:53.682Z,12.33
2023-04-21T18:18:21.973Z,12.29
2023-04-21T18:20:50.005Z,12.10
2023-04-21T18:23:18.190Z,11.99
2023-04-21T18:25:46.653Z,11.98
2023-04-21T18:28:14.924Z,11.89
2023-04-21T18:30:43.098Z,11.85
2023-04-21T18:33:12.795Z,11.84
2023-04-21T18:35:42.467Z,11.84
2023-04-21T18:38:11.686Z,11.79
2023-04-21T18:40:40.919Z,11.75
2023-04-21T18:43:09.847Z,11.67
2023-04-21T18:45:38.675Z,11.63
2023-04-21T18:48:07.296Z,11.53
2023-04-21T18:50:40.054Z,11.46
2023-04-21T18:53:08.872Z,11.37
2023-04-21T18:55:37.480Z,11.23
2023-04-21T18:58:05.796Z,11.07
2023-04-21T19:00:37.573Z,10.97
2023-04-21T19:03:06.641Z,10.87
2023-04-21T19:05:37.099Z,10.76
2023-04-21T19:08:05.875Z,10.62
2023-04-21T19:10:37.996Z,10.50
2023-04-21T19:13:06.784Z,10.41
2023-04-21T19:15:35.330Z,10.32
2023-04-21T19:18:03.887Z,10.26
2023-04-21T19:20:32.632Z,10.11
2023-04-21T19:23:02.333Z,10.05
2023-04-21T19:25:30.910Z,9.99
2023-04-21T19:27:59.552Z,9.95
2023-04-21T19:30:27.780Z,9.88
2023-04-21T19:32:56.456Z,9.81
2023-04-21T19:35:24.795Z,9.78
2023-04-21T19:37:56.553Z,9.68
2023-04-21T19:40:28.762Z,9.65
2023-04-21T19:43:03.414Z,9.57
2023-04-21T19:45:36.624Z,9.50
2023-04-21T19:48:09.195Z,9.43
2023-04-21T19:50:40.709Z,9.37
2023-04-21T19:53:15.993Z,9.29
2023-04-21T19:55:52.826Z,9.26
2023-04-21T19:58:39.429Z,9.18
2023-04-21T20:01:13.582Z,9.16
2023-04-21T20:03:48.002Z,9.09
2023-04-21T20:06:22.656Z,9.06
2023-04-21T20:08:55.242Z,9.00
2023-04-21T20:11:30.904Z,8.93
2023-04-21T20:14:00.504Z,8.88
2023-04-21T20:16:30.989Z,8.82
2023-04-21T20:19:03.837Z,8.76
2023-04-21T20:21:35.929Z,8.69
2023-04-21T20:24:10.202Z,8.59
2023-04-21T20:26:41.186Z,8.55
2023-04-21T20:29:09.381Z,8.48
2023-04-21T20:31:41.677Z,8.40
2023-04-21T20:34:13.033Z,8.32
2023-04-21T20:36:41.837Z,8.28
2023-04-21T20:39:15.745Z,8.21
2023-04-21T20:42:04.730Z,8.13
2023-04-21T20:44:44.961Z,8.17
2023-04-21T20:47:15.926Z,8.17
2023-04-21T20:49:48.561Z,8.15
2023-04-21T20:52:21.230Z,8.00
2023-04-21T20:54:54.401Z,7.82
2023-04-21T20:57:27.133Z,7.65
2023-04-21T20:59:59.424Z,7.53
2023-04-21T21:02:33.605Z,7.42
2023-04-21T21:05:07.716Z,7.25
2023-04-21T21:07:40.686Z,7.19
2023-04-21T21:10:11.864Z,7.16
2023-04-21T21:12:46.079Z,7.21
2023-04-21T21:15:18.882Z,7.28
2023-04-21T21:17:51.498Z,7.32
2023-04-21T21:20:25.236Z,7.35
2023-04-21T21:22:59.317Z,7.33
2023-04-21T21:25:32.679Z,7.32
2023-04-21T21:28:08.488Z,7.32
2023-04-21T21:30:37.579Z,7.32
2023-04-21T21:33:09.709Z,7.36
2023-04-21T21:35:41.968Z,7.38
2023-04-21T21:38:14.394Z,7.36
2023-04-21T21:40:46.542Z,7.37
2023-04-21T21:43:20.413Z,7.36
2023-04-21T21:45:54.023Z,7.39
2023-04-21T21:48:26.899Z,7.39
2023-04-21T21:50:58.784Z,7.41
2023-04-21T21:53:31.354Z,7.46
2023-04-21T21:56:03.769Z,7.49
2023-04-21T21:58:38.392Z,7.53
2023-04-21T22:01:11.436Z,7.51
2023-04-21T22:03:41.241Z,7.54
2023-04-21T22:06:10.321Z,7.55
2023-04-21T22:08:43.290Z,7.56
2023-04-21T22:11:13.018Z,7.60
2023-04-21T22:13:47.404Z,7.64
2023-04-21T22:16:19.010Z,7.67
2023-04-21T22:18:54.583Z,7.70
2023-04-21T22:21:26.173Z,7.73
2023-04-21T22:23:54.321Z,7.71
2023-04-21T22:26:26.182Z,7.63
2023-04-21T22:28:56.972Z,7.61
2023-04-21T22:31:28.456Z,7.57
2023-04-21T22:33:58.385Z,7.51
2023-04-21T22:36:27.170Z,7.47
2023-04-21T22:38:55.749Z,7.41
2023-04-21T22:41:26.920Z,7.38
2023-04-21T22:43:57.616Z,7.39
2023-04-21T22:46:26.736Z,7.39
2023-04-21T22:48:57.269Z,7.42
2023-04-21T22:51:31.239Z,7.46
2023-04-21T22:54:03.444Z,7.46
2023-04-21T22:56:32.206Z,7.48
2023-04-21T22:59:02.191Z,7.47
2023-04-21T23:01:32.888Z,7.51
2023-04-21T23:04:01.416Z,7.53
2023-04-21T23:06:29.949Z,7.54
2023-04-21T23:09:00.158Z,7.54
2023-04-21T23:11:30.214Z,7.53
2023-04-21T23:14:02.371Z,7.48
2023-04-21T23:16:34.823Z,7.48
2023-04-21T23:19:04.725Z,7.48
2023-04-21T23:21:33.415Z,7.46
2023-04-21T23:24:02.627Z,7.41
2023-04-21T23:26:35.405Z,7.38
2023-04-21T23:29:06.190Z,7.32
2023-04-21T23:31:38.708Z,7.17
2023-04-21T23:34:08.930Z,7.07
2023-04-21T23:36:37.311Z,6.98
2023-04-21T23:39:06.289Z,6.86
2023-04-21T23:41:34.776Z,6.71
2023-04-21T23:44:02.920Z,6.60
2023-04-21T23:46:31.497Z,6.51
2023-04-21T23:49:01.241Z,6.39
2023-04-21T23:51:29.377Z,6.29
2023-04-21T23:53:57.471Z,6.22
2023-04-21T23:56:25.768Z,6.21
2023-04-21T23:58:55.312Z,6.22
